createdAt,value
2023-05-24T00:01:44.731Z,17.80
2023-05-24T00:04:13.397Z,15.60
2023-05-24T00:06:42.865Z,16.70
2023-05-24T00:09:12.657Z,18.10
2023-05-24T00:11:41.128Z,17.70
2023-05-24T00:14:09.664Z,19.00
2023-05-24T00:16:38.259Z,13.40
2023-05-24T00:19:06.727Z,16.60
2023-05-24T00:21:37.119Z,17.20
2023-05-24T00:24:06.831Z,17.80
2023-05-24T00:26:35.164Z,17.00
2023-05-24T00:29:04.030Z,14.10
2023-05-24T00:31:32.658Z,18.10
2023-05-24T00:34:01.127Z,16.10
2023-05-24T00:36:29.410Z,16.80
2023-05-24T00:38:57.870Z,17.20
2023-05-24T00:41:27.248Z,16.00
2023-05-24T00:43:55.874Z,17.40
2023-05-24T00:46:33.363Z,14.80
2023-05-24T00:49:02.348Z,16.00
2023-05-24T00:51:32.795Z,18.80
2023-05-24T00:54:01.536Z,14.70
2023-05-24T00:56:31.623Z,15.60
2023-05-24T00:59:00.578Z,17.10
2023-05-24T01:01:31.539Z,14.80
2023-05-24T01:04:00.800Z,16.00
2023-05-24T01:06:30.742Z,15.20
2023-05-24T01:09:20.184Z,14.00
2023-05-24T01:12:01.360Z,16.30
2023-05-24T01:14:31.872Z,16.70
2023-05-24T01:17:46.623Z,14.60
2023-05-24T01:20:17.957Z,16.40
2023-05-24T01:23:15.246Z,16.70
2023-05-24T01:25:49.459Z,15.20
2023-05-24T01:28:19.333Z,20.20
2023-05-24T01:30:48.491Z,14.50
2023-05-24T01:33:17.027Z,17.30
2023-05-24T01:35:45.434Z,14.10
2023-05-24T01:38:14.680Z,20.80
2023-05-24T01:40:44.291Z,17.40
2023-05-24T01:43:38.273Z,14.30
2023-05-24T01:46:23.255Z,15.40
2023-05-24T01:48:57.737Z,15.70
2023-05-24T01:51:34.325Z,16.60
2023-05-24T01:54:06.814Z,13.60
2023-05-24T01:56:37.364Z,14.10
2023-05-24T01:59:07.671Z,15.50
2023-05-24T02:01:36.209Z,15.70
2023-05-24T02:04:04.902Z,16.10
2023-05-24T02:06:33.336Z,15.50
2023-05-24T02:09:01.631Z,15.20
2023-05-24T02:11:30.119Z,14.70
2023-05-24T02:13:58.493Z,15.20
2023-05-24T02:16:27.217Z,14.40
2023-05-24T02:18:55.957Z,13.70
2023-05-24T02:21:25.686Z,14.70
2023-05-24T02:23:54.303Z,14.00
2023-05-24T02:26:22.758Z,13.40
2023-05-24T02:28:51.192Z,14.00
2023-05-24T02:31:19.674Z,15.20
2023-05-24T02:33:48.078Z,14.50
2023-05-24T02:36:16.408Z,14.40
2023-05-24T02:38:44.825Z,14.40
2023-05-24T02:41:18.113Z,12.00
2023-05-24T02:43:47.358Z,16.60
2023-05-24T02:46:16.110Z,13.70
2023-05-24T02:48:44.779Z,13.80
2023-05-24T02:51:13.195Z,14.10
2023-05-24T02:53:43.750Z,16.20
2023-05-24T02:58:42.720Z,14.30
2023-05-24T03:01:13.221Z,13.60
2023-05-24T03:03:42.013Z,13.60
2023-05-24T03:06:10.481Z,17.60
2023-05-24T03:08:38.822Z,15.30
2023-05-24T03:11:07.370Z,14.70
2023-05-24T03:13:36.005Z,12.70
2023-05-24T03:16:04.672Z,15.80
2023-05-24T03:18:33.024Z,16.90
2023-05-24T03:21:01.396Z,17.00
2023-05-24T03:23:29.773Z,12.30
2023-05-24T03:25:58.296Z,13.20
2023-05-24T03:28:28.012Z,14.70
2023-05-24T03:30:56.461Z,13.80
2023-05-24T03:33:24.860Z,13.20
2023-05-24T03:35:53.202Z,12.60
2023-05-24T03:38:21.510Z,15.20
2023-05-24T03:40:50.022Z,20.10
2023-05-24T03:43:18.737Z,13.20
2023-05-24T03:45:47.602Z,13.70
2023-05-24T03:48:16.096Z,13.50
2023-05-24T03:50:44.717Z,18.50
2023-05-24T03:53:13.355Z,14.30
2023-05-24T03:55:41.907Z,16.20
2023-05-24T03:58:10.304Z,14.40
2023-05-24T04:00:38.868Z,15.30
2023-05-24T04:03:07.405Z,13.40
2023-05-24T04:05:35.970Z,12.70
2023-05-24T04:08:04.487Z,18.80
2023-05-24T04:10:32.890Z,17.10
2023-05-24T04:13:01.949Z,12.90
2023-05-24T04:15:31.462Z,14.80
2023-05-24T04:18:00.976Z,13.20
2023-05-24T04:20:29.724Z,13.50
2023-05-24T04:22:59.244Z,12.50
2023-05-24T04:26:47.438Z,13.70
2023-05-24T04:29:40.554Z,12.90
2023-05-24T04:33:30.222Z,15.70
2023-05-24T04:43:28.376Z,13.90
2023-05-24T04:49:44.417Z,17.80
2023-05-24T04:52:38.973Z,14.70
2023-05-24T04:55:08.030Z,15.20
2023-05-24T04:57:36.445Z,15.60
2023-05-24T05:00:05.894Z,14.00
2023-05-24T05:03:26.074Z,14.80
2023-05-24T05:05:54.544Z,11.90
2023-05-24T05:09:03.279Z,13.90
2023-05-24T05:19:50.574Z,13.60
2023-05-24T05:36:06.906Z,14.70
2023-05-24T05:38:35.344Z,14.30
2023-05-24T05:42:09.536Z,14.40
2023-05-24T05:44:51.918Z,12.00
2023-05-24T05:48:16.613Z,12.00
2023-05-24T05:51:10.558Z,20.40
2023-05-24T05:54:11.184Z,11.20
2023-05-24T06:04:44.376Z,11.40
2023-05-24T06:11:00.234Z,14.40
2023-05-24T06:13:29.257Z,13.10
2023-05-24T06:15:59.142Z,11.80
2023-05-24T06:18:27.978Z,12.70
2023-05-24T06:20:58.401Z,15.20
2023-05-24T06:23:26.979Z,17.50
2023-05-24T06:25:56.404Z,10.20
2023-05-24T06:28:24.819Z,16.90
2023-05-24T06:30:53.341Z,12.20
2023-05-24T06:33:22.718Z,14.80
2023-05-24T06:35:51.259Z,11.70
2023-05-24T06:38:19.689Z,13.30
2023-05-24T06:40:48.113Z,13.00
2023-05-24T06:43:16.636Z,12.40
2023-05-24T06:45:44.969Z,10.80
2023-05-24T06:48:13.354Z,17.20
2023-05-24T06:50:42.984Z,13.10
2023-05-24T06:53:11.747Z,14.40
2023-05-24T06:55:40.116Z,14.50
2023-05-24T06:58:08.570Z,9.90
2023-05-24T07:00:36.864Z,13.40
2023-05-24T07:03:05.286Z,11.90
2023-05-24T07:05:33.660Z,12.80
2023-05-24T07:08:02.276Z,15.20
2023-05-24T07:10:30.632Z,10.20
2023-05-24T07:12:58.946Z,11.30
2023-05-24T07:15:27.344Z,13.70
2023-05-24T07:17:55.637Z,11.90
2023-05-24T07:20:24.220Z,15.30
2023-05-24T07:22:53.679Z,16.50
2023-05-24T07:25:23.387Z,10.50
2023-05-24T07:27:51.895Z,12.00
2023-05-24T07:30:46.624Z,10.00
2023-05-24T07:33:09.884Z,10.40
2023-05-24T07:35:39.244Z,11.80
2023-05-24T07:38:08.021Z,11.40
2023-05-24T07:40:36.394Z,9.40
2023-05-24T07:43:08.709Z,10.90
2023-05-24T07:45:38.343Z,12.80
2023-05-24T07:48:07.489Z,12.60
2023-05-24T07:50:36.476Z,15.30
2023-05-24T07:53:05.673Z,12.40
2023-05-24T07:55:34.419Z,14.00
2023-05-24T07:58:30.596Z,10.20
2023-05-24T08:01:00.586Z,13.10
2023-05-24T08:03:30.163Z,12.90
2023-05-24T08:05:58.907Z,11.60
2023-05-24T08:08:27.274Z,11.60
2023-05-24T08:10:55.788Z,13.40
2023-05-24T08:13:24.800Z,14.70
2023-05-24T08:15:53.561Z,15.70
2023-05-24T08:18:21.929Z,11.60
2023-05-24T08:20:50.315Z,11.90
2023-05-24T08:23:18.940Z,11.10
2023-05-24T08:25:47.941Z,14.50
2023-05-24T08:28:17.256Z,12.50
2023-05-24T08:30:46.549Z,12.80
2023-05-24T08:33:15.079Z,13.30
2023-05-24T08:35:43.679Z,11.80
2023-05-24T08:38:12.346Z,14.20
2023-05-24T08:40:41.125Z,13.30
2023-05-24T08:43:12.488Z,12.60
2023-05-24T08:45:42.506Z,11.20
2023-05-24T08:48:13.495Z,15.50
2023-05-24T08:50:43.674Z,12.50
2023-05-24T08:57:40.002Z,11.40
2023-05-24T09:00:14.651Z,14.20
2023-05-24T09:02:46.091Z,13.00
2023-05-24T09:05:21.924Z,12.80
2023-05-24T09:07:53.620Z,13.10
2023-05-24T09:10:24.704Z,16.60
2023-05-24T09:12:57.774Z,12.10
2023-05-24T09:15:27.540Z,14.30
2023-05-24T09:17:56.271Z,16.10
2023-05-24T09:20:24.959Z,13.40
2023-05-24T09:22:54.316Z,14.10
2023-05-24T09:25:29.614Z,13.30
2023-05-24T09:27:58.892Z,11.30
2023-05-24T09:30:30.871Z,16.30
2023-05-24T09:33:01.000Z,12.20
2023-05-24T09:36:21.590Z,12.60
2023-05-24T09:39:11.140Z,14.50
2023-05-24T09:41:40.060Z,17.10
2023-05-24T09:44:08.429Z,14.50
2023-05-24T09:46:38.926Z,16.00
2023-05-24T09:49:08.894Z,15.10
2023-05-24T09:51:39.619Z,17.80
2023-05-24T09:54:10.018Z,19.20
2023-05-24T09:56:41.018Z,20.50
2023-05-24T09:59:10.248Z,17.10
2023-05-24T10:01:38.880Z,20.90
2023-05-24T10:04:09.775Z,16.50
2023-05-24T10:06:43.435Z,20.30
2023-05-24T10:09:29.625Z,17.90
2023-05-24T10:11:58.573Z,16.60
2023-05-24T10:14:31.004Z,16.80
2023-05-24T10:17:00.639Z,15.50
2023-05-24T10:22:00.225Z,17.90
2023-05-24T10:24:36.108Z,20.30
2023-05-24T10:27:11.501Z,13.80
2023-05-24T10:29:59.886Z,13.20
2023-05-24T10:32:32.615Z,17.90
2023-05-24T10:35:03.791Z,12.60
2023-05-24T10:37:43.477Z,20.10
2023-05-24T10:40:23.091Z,16.40
2023-05-24T10:42:55.519Z,15.20
2023-05-24T10:45:49.494Z,15.90
2023-05-24T10:48:29.337Z,20.00
2023-05-24T10:51:01.659Z,16.30
2023-05-24T10:53:41.400Z,15.20
2023-05-24T10:56:10.928Z,17.10
2023-05-24T10:59:08.404Z,22.40
2023-05-24T11:01:39.829Z,16.10
2023-05-24T11:04:15.704Z,22.40
2023-05-24T11:06:51.063Z,21.90
2023-05-24T11:09:22.450Z,14.90
2023-05-24T11:11:55.407Z,19.20
2023-05-24T11:14:27.768Z,14.80
2023-05-24T11:16:57.020Z,17.50
2023-05-24T11:19:35.523Z,15.30
2023-05-24T11:22:07.879Z,14.20
2023-05-24T11:24:37.239Z,13.10
2023-05-24T11:27:07.433Z,15.30
2023-05-24T11:29:41.750Z,14.00
2023-05-24T11:32:10.525Z,15.60
2023-05-24T11:34:40.311Z,18.10
2023-05-24T11:37:09.603Z,16.90
2023-05-24T11:39:38.752Z,13.50
2023-05-24T11:42:09.598Z,12.10
2023-05-24T11:44:38.794Z,15.90
2023-05-24T11:47:09.561Z,13.90
2023-05-24T11:49:37.957Z,14.30
2023-05-24T11:52:06.768Z,18.40
2023-05-24T11:54:38.092Z,18.80
2023-05-24T11:57:07.120Z,15.00
2023-05-24T11:59:38.205Z,16.60
2023-05-24T12:02:10.816Z,12.00
2023-05-24T12:04:39.494Z,13.90
2023-05-24T12:07:12.203Z,15.10
2023-05-24T12:09:40.624Z,10.40
2023-05-24T12:12:09.343Z,14.60
2023-05-24T12:14:39.467Z,14.80
2023-05-24T12:19:45.093Z,12.60
2023-05-24T12:22:13.472Z,18.60
2023-05-24T12:24:42.674Z,10.30
2023-05-24T12:27:11.822Z,13.60
2023-05-24T12:29:42.190Z,15.70
2023-05-24T12:32:15.565Z,11.00
2023-05-24T12:34:45.192Z,13.20
2023-05-24T12:37:15.558Z,14.10
2023-05-24T12:42:14.160Z,11.30
2023-05-24T12:44:43.077Z,11.80
2023-05-24T12:47:12.505Z,14.80
2023-05-24T12:49:40.944Z,14.60
2023-05-24T12:52:09.580Z,12.40
2023-05-24T12:54:38.085Z,11.40
2023-05-24T12:57:07.985Z,12.80
2023-05-24T12:59:36.391Z,12.90
2023-05-24T13:02:04.850Z,11.20
2023-05-24T13:04:34.147Z,10.90
2023-05-24T13:07:03.460Z,14.90
2023-05-24T13:09:33.447Z,13.70
2023-05-24T13:12:02.191Z,12.80
2023-05-24T13:14:30.769Z,10.40
2023-05-24T13:16:59.422Z,10.00
2023-05-24T13:19:28.027Z,12.10
2023-05-24T13:21:56.465Z,12.50
2023-05-24T13:24:24.995Z,12.90
2023-05-24T13:26:54.904Z,12.00
2023-05-24T13:32:08.265Z,9.80
2023-05-24T13:34:52.267Z,9.70
2023-05-24T13:38:03.583Z,13.10
2023-05-24T13:40:32.471Z,10.50
2023-05-24T13:43:00.954Z,12.10
2023-05-24T13:45:30.638Z,11.70
2023-05-24T13:48:04.249Z,9.30
2023-05-24T13:50:36.852Z,11.90
2023-05-24T13:53:05.974Z,9.00
2023-05-24T13:55:37.902Z,11.00
2023-05-24T13:58:07.065Z,11.50
2023-05-24T14:00:36.449Z,11.50
2023-05-24T14:03:06.387Z,10.10
2023-05-24T14:05:35.618Z,8.40
2023-05-24T14:08:07.244Z,10.70
2023-05-24T14:10:37.344Z,13.90
2023-05-24T14:16:33.656Z,15.10
2023-05-24T14:19:02.196Z,10.80
2023-05-24T14:21:31.367Z,10.50
2023-05-24T14:23:59.827Z,12.90
2023-05-24T14:26:28.862Z,17.30
2023-05-24T14:28:57.526Z,13.20
2023-05-24T14:31:26.143Z,13.30
2023-05-24T14:33:54.646Z,14.10
2023-05-24T14:36:23.479Z,10.00
2023-05-24T14:38:54.821Z,9.40
2023-05-24T14:41:23.194Z,13.70
2023-05-24T14:43:51.617Z,11.00
2023-05-24T14:46:20.066Z,8.60
2023-05-24T14:48:48.585Z,24.50
2023-05-24T14:51:17.125Z,13.50
2023-05-24T14:53:45.888Z,10.60
2023-05-24T14:56:15.047Z,10.90
2023-05-24T14:58:43.624Z,11.30
2023-05-24T15:01:12.042Z,13.80
2023-05-24T15:03:40.600Z,16.30
2023-05-24T15:06:09.736Z,13.60
2023-05-24T15:08:38.570Z,11.60
2023-05-24T15:11:06.931Z,12.20
2023-05-24T15:13:35.537Z,8.40
2023-05-24T15:16:04.172Z,12.30
2023-05-24T15:18:32.708Z,9.30
2023-05-24T15:21:01.379Z,13.50
2023-05-24T15:23:29.861Z,10.80
2023-05-24T15:25:58.318Z,14.50
2023-05-24T15:28:26.997Z,10.70
2023-05-24T15:30:57.333Z,13.60
2023-05-24T15:33:27.245Z,11.10
2023-05-24T15:35:56.037Z,16.50
2023-05-24T15:38:24.983Z,20.30
2023-05-24T15:40:53.607Z,15.90
2023-05-24T15:43:22.052Z,20.70
2023-05-24T15:45:50.569Z,22.20
2023-05-24T15:48:18.969Z,24.80
2023-05-24T15:51:25.736Z,21.90
2023-05-24T15:53:35.848Z,22.00
2023-05-24T15:56:04.439Z,18.40
2023-05-24T15:58:33.054Z,23.10
2023-05-24T16:01:01.732Z,21.00
2023-05-24T16:03:30.158Z,21.70
2023-05-24T16:05:58.896Z,24.10
2023-05-24T16:08:28.786Z,19.80
2023-05-24T16:10:58.019Z,22.20
2023-05-24T16:13:26.565Z,22.20
2023-05-24T16:15:55.200Z,28.20
2023-05-24T16:18:23.858Z,29.00
2023-05-24T16:20:53.172Z,26.70
2023-05-24T16:23:24.449Z,26.30
2023-05-24T16:25:53.879Z,39.60
2023-05-24T16:28:24.445Z,26.20
2023-05-24T16:30:56.609Z,25.30
2023-05-24T16:33:26.007Z,25.90
2023-05-24T16:35:58.660Z,27.80
2023-05-24T16:38:28.858Z,25.00
2023-05-24T16:40:57.947Z,25.10
2023-05-24T16:43:27.008Z,22.20
2023-05-24T16:45:56.497Z,21.20
2023-05-24T16:50:58.762Z,20.20
2023-05-24T16:53:29.325Z,22.20
2023-05-24T16:55:58.435Z,20.90
2023-05-24T16:58:28.969Z,23.10
2023-05-24T17:00:59.207Z,20.80
2023-05-24T17:03:28.901Z,21.60
2023-05-24T17:06:05.567Z,24.40
2023-05-24T17:08:36.347Z,22.30
2023-05-24T17:13:39.805Z,21.90
2023-05-24T17:16:14.174Z,20.50
2023-05-24T17:18:42.642Z,20.70
2023-05-24T17:25:38.033Z,22.60
